createdAt,value
2023-01-11T00:00:02.684Z,9.50
2023-01-11T00:03:02.343Z,11.18
2023-01-11T00:06:24.511Z,11.54
2023-01-11T00:08:52.618Z,9.72
2023-01-11T00:11:20.538Z,8.51
2023-01-11T00:13:48.502Z,8.19
2023-01-11T00:16:17.126Z,9.86
2023-01-11T00:18:45.069Z,11.30
2023-01-11T00:21:13.321Z,12.09
2023-01-11T00:23:41.397Z,12.12
2023-01-11T00:27:26.444Z,10.73
2023-01-11T00:29:54.436Z,8.89
2023-01-11T00:32:22.434Z,8.59
2023-01-11T00:34:50.484Z,10.26
2023-01-11T00:37:18.578Z,11.71
2023-01-11T00:39:46.522Z,12.02
2023-01-11T00:42:33.339Z,10.69
2023-01-11T00:45:20.017Z,9.27
2023-01-11T00:48:05.831Z,8.94
2023-01-11T00:50:36.997Z,10.77
2023-01-11T00:53:06.078Z,11.97
2023-01-11T00:56:02.516Z,12.12
2023-01-11T00:58:31.103Z,10.48
2023-01-11T01:01:06.577Z,9.28
2023-01-11T01:03:34.731Z,8.89
2023-01-11T01:06:02.953Z,10.51
2023-01-11T01:08:31.115Z,11.90
2023-01-11T01:10:59.076Z,12.19
2023-01-11T01:14:15.863Z,10.89
2023-01-11T01:16:45.951Z,9.17
2023-01-11T01:23:34.550Z,11.28
2023-01-11T01:26:58.450Z,11.87
2023-01-11T01:29:26.631Z,11.40
2023-01-11T01:31:54.566Z,9.87
2023-01-11T01:34:50.329Z,8.99
2023-01-11T01:37:18.322Z,10.13
2023-01-11T01:39:46.326Z,10.82
2023-01-11T01:42:20.240Z,11.37
2023-01-11T01:45:02.697Z,11.33
2023-01-11T01:47:39.800Z,9.79
2023-01-11T01:50:17.990Z,8.93
2023-01-11T01:52:50.382Z,10.06
2023-01-11T01:55:27.073Z,11.25
2023-01-11T01:57:57.255Z,11.58
2023-01-11T02:00:25.382Z,10.12
2023-01-11T02:02:54.873Z,8.75
2023-01-11T02:05:23.149Z,8.28
2023-01-11T02:07:52.145Z,9.73
2023-01-11T02:10:22.699Z,10.88
2023-01-11T02:13:02.833Z,11.46
2023-01-11T02:15:31.668Z,11.18
2023-01-11T02:18:00.144Z,9.78
2023-01-11T02:20:52.892Z,8.55
2023-01-11T02:23:42.609Z,8.29
2023-01-11T02:26:22.659Z,10.10
2023-01-11T02:28:50.521Z,11.23
2023-01-11T02:31:29.030Z,11.89
2023-01-11T02:34:31.116Z,11.56
2023-01-11T02:37:11.496Z,9.76
2023-01-11T02:39:53.332Z,8.51
2023-01-11T02:43:02.228Z,8.27
2023-01-11T02:46:23.339Z,10.12
2023-01-11T02:49:20.630Z,11.33
2023-01-11T02:51:55.376Z,11.28
2023-01-11T02:54:24.551Z,9.87
2023-01-11T02:56:57.546Z,8.66
2023-01-11T02:59:32.140Z,8.25
2023-01-11T03:02:00.822Z,9.68
2023-01-11T03:04:33.088Z,10.78
2023-01-11T03:07:25.659Z,11.55
2023-01-11T03:10:05.174Z,11.45
2023-01-11T03:12:55.186Z,9.95
2023-01-11T03:16:01.618Z,8.56
2023-01-11T03:18:39.656Z,8.42
2023-01-11T03:21:16.509Z,10.13
2023-01-11T03:24:14.692Z,11.08
2023-01-11T03:26:54.925Z,10.97
2023-01-11T03:29:40.602Z,9.41
2023-01-11T03:32:22.700Z,8.65
2023-01-11T03:35:09.377Z,10.02
2023-01-11T03:37:56.720Z,10.99
2023-01-11T03:40:30.757Z,11.04
2023-01-11T03:43:13.583Z,9.50
2023-01-11T03:46:05.922Z,8.12
2023-01-11T03:48:47.564Z,7.79
2023-01-11T03:51:21.743Z,9.32
2023-01-11T03:53:51.997Z,10.33
2023-01-11T03:56:24.771Z,11.00
2023-01-11T03:58:52.834Z,11.46
2023-01-11T04:01:21.018Z,11.38
2023-01-11T04:03:48.951Z,10.08
2023-01-11T04:06:19.425Z,8.83
2023-01-11T04:08:47.513Z,8.36
2023-01-11T04:11:15.505Z,9.75
2023-01-11T04:13:43.425Z,11.17
2023-01-11T04:16:11.510Z,11.59
2023-01-11T04:18:39.438Z,10.37
2023-01-11T04:21:07.543Z,9.01
2023-01-11T04:23:36.631Z,8.43
2023-01-11T04:26:05.187Z,9.82
2023-01-11T04:28:34.455Z,11.00
2023-01-11T04:31:02.487Z,11.29
2023-01-11T04:33:30.545Z,10.08
2023-01-11T04:35:58.681Z,8.78
2023-01-11T04:38:27.339Z,8.26
2023-01-11T04:41:15.446Z,9.53
2023-01-11T04:43:43.497Z,10.83
2023-01-11T04:46:11.551Z,11.47
2023-01-11T04:48:41.545Z,10.81
2023-01-11T04:51:10.202Z,9.31
2023-01-11T04:53:38.781Z,8.54
2023-01-11T04:56:07.497Z,9.74
2023-01-11T04:58:38.300Z,10.83
2023-01-11T05:01:16.360Z,11.47
2023-01-11T05:03:45.989Z,11.45
2023-01-11T05:06:15.414Z,10.06
2023-01-11T05:08:47.908Z,8.73
2023-01-11T05:11:17.375Z,8.22
2023-01-11T05:13:45.462Z,9.65
2023-01-11T05:16:19.574Z,10.91
2023-01-11T05:18:52.424Z,11.54
2023-01-11T05:21:22.990Z,11.55
2023-01-11T05:24:47.444Z,10.19
2023-01-11T05:27:15.442Z,8.52
2023-01-11T05:29:44.572Z,8.18
2023-01-11T05:32:15.802Z,9.65
2023-01-11T05:34:44.014Z,10.97
2023-01-11T05:37:12.127Z,11.69
2023-01-11T05:39:40.116Z,11.71
2023-01-11T05:42:08.026Z,10.31
2023-01-11T05:44:56.839Z,8.99
2023-01-11T05:47:26.108Z,8.57
2023-01-11T05:49:58.502Z,10.12
2023-01-11T05:52:26.415Z,11.15
2023-01-11T05:54:54.347Z,11.27
2023-01-11T05:57:22.266Z,9.97
2023-01-11T05:59:50.264Z,8.59
2023-01-11T06:02:18.473Z,8.00
2023-01-11T06:04:46.567Z,9.27
2023-01-11T06:07:14.603Z,10.59
2023-01-11T06:09:42.746Z,11.41
2023-01-11T06:12:11.167Z,11.06
2023-01-11T06:14:39.773Z,9.52
2023-01-11T06:17:10.028Z,8.27
2023-01-11T06:19:38.089Z,7.91
2023-01-11T06:22:43.938Z,9.35
2023-01-11T06:25:12.480Z,10.73
2023-01-11T06:27:40.498Z,11.50
2023-01-11T06:30:09.322Z,11.39
2023-01-11T06:32:37.422Z,9.87
2023-01-11T06:35:06.131Z,8.50
2023-01-11T06:37:34.230Z,7.99
2023-01-11T06:40:02.352Z,9.36
2023-01-11T06:42:30.619Z,10.52
2023-01-11T06:44:59.093Z,11.14
2023-01-11T06:47:27.332Z,11.17
2023-01-11T06:49:56.179Z,9.77
2023-01-11T06:52:24.639Z,8.35
2023-01-11T06:54:52.655Z,7.77
2023-01-11T06:57:20.529Z,9.06
2023-01-11T06:59:49.574Z,10.19
2023-01-11T07:02:17.704Z,10.85
2023-01-11T07:04:45.833Z,10.91
2023-01-11T07:07:13.785Z,9.51
2023-01-11T07:09:41.766Z,8.10
2023-01-11T07:12:09.653Z,7.51
2023-01-11T07:14:37.550Z,8.88
2023-01-11T07:17:05.479Z,10.27
2023-01-11T07:19:33.369Z,10.99
2023-01-11T07:22:01.379Z,10.40
2023-01-11T07:24:29.349Z,8.76
2023-01-11T07:26:59.796Z,7.53
2023-01-11T07:29:27.909Z,7.18
2023-01-11T07:31:55.888Z,8.80
2023-01-11T07:34:24.297Z,9.99
2023-01-11T07:36:52.300Z,10.61
2023-01-11T07:39:20.184Z,10.53
2023-01-11T07:42:06.612Z,9.02
2023-01-11T07:44:34.486Z,7.43
2023-01-11T07:47:02.442Z,7.01
2023-01-11T07:49:30.492Z,8.40
2023-01-11T07:51:58.509Z,9.59
2023-01-11T07:54:26.532Z,10.29
2023-01-11T07:56:56.645Z,10.72
2023-01-11T07:59:24.669Z,10.66
2023-01-11T08:01:52.798Z,9.23
2023-01-11T08:04:20.734Z,7.80
2023-01-11T08:06:48.685Z,7.25
2023-01-11T08:09:16.641Z,8.58
2023-01-11T08:12:03.411Z,9.65
2023-01-11T08:14:40.398Z,10.44
2023-01-11T08:17:12.382Z,10.92
2023-01-11T08:19:40.896Z,9.87
2023-01-11T08:22:10.049Z,8.33
2023-01-11T08:24:38.095Z,7.63
2023-01-11T08:27:06.473Z,8.96
2023-01-11T08:29:34.558Z,10.27
2023-01-11T08:32:02.557Z,10.96
2023-01-11T08:34:31.355Z,11.19
2023-01-11T08:37:02.234Z,9.89
2023-01-11T08:39:31.191Z,8.47
2023-01-11T08:42:00.371Z,7.95
2023-01-11T08:44:34.100Z,9.42
2023-01-11T08:47:04.077Z,10.75
2023-01-11T08:49:32.012Z,11.50
2023-01-11T08:51:59.965Z,11.46
2023-01-11T08:54:28.008Z,10.01
2023-01-11T08:56:56.367Z,8.64
2023-01-11T08:59:24.275Z,8.17
2023-01-11T09:01:52.263Z,9.57
2023-01-11T09:04:25.101Z,10.88
2023-01-11T09:06:53.810Z,11.59
2023-01-11T09:09:21.930Z,11.65
2023-01-11T09:11:57.097Z,10.36
2023-01-11T09:14:27.630Z,9.01
2023-01-11T09:16:56.492Z,8.63
2023-01-11T09:19:25.343Z,10.19
2023-01-11T09:21:57.485Z,11.47
2023-01-11T09:24:25.440Z,12.15
2023-01-11T09:26:53.404Z,11.91
2023-01-11T09:29:21.427Z,10.43
2023-01-11T09:31:49.410Z,9.05
2023-01-11T09:34:17.323Z,8.62
2023-01-11T09:36:47.493Z,10.04
2023-01-11T09:39:19.356Z,11.33
2023-01-11T09:42:06.287Z,11.98
2023-01-11T09:44:49.931Z,12.12
2023-01-11T09:47:30.290Z,10.75
2023-01-11T09:50:02.264Z,9.54
2023-01-11T09:52:43.921Z,9.35
2023-01-11T09:55:23.194Z,11.18
2023-01-11T09:58:24.194Z,12.33
2023-01-11T10:00:55.418Z,12.27
2023-01-11T10:03:38.931Z,10.83
2023-01-11T10:06:33.375Z,9.65
2023-01-11T10:18:30.854Z,12.37
2023-01-11T10:18:48.908Z,10.71
2023-01-11T10:21:54.765Z,9.62
2023-01-11T10:24:33.296Z,9.73
2023-01-11T10:27:07.688Z,11.64
2023-01-11T10:29:53.803Z,12.35
2023-01-11T10:32:54.350Z,11.15
2023-01-11T10:35:48.002Z,9.74
2023-01-11T10:38:43.686Z,9.51
2023-01-11T10:41:26.612Z,11.51
2023-01-11T10:44:05.242Z,12.21
2023-01-11T10:46:36.970Z,10.96
2023-01-11T10:49:41.172Z,9.74
2023-01-11T10:52:23.308Z,8.67
2023-01-11T10:54:56.030Z,8.58
2023-01-11T10:58:02.748Z,10.26
2023-01-11T11:00:44.701Z,11.89
2023-01-11T11:03:31.680Z,12.16
2023-01-11T11:06:24.758Z,10.79
2023-01-11T11:09:12.580Z,9.65
2023-01-11T11:11:49.173Z,8.99
2023-01-11T11:14:52.870Z,9.11
2023-01-11T11:17:26.992Z,11.38
2023-01-11T11:19:54.976Z,12.37
2023-01-11T11:22:23.078Z,11.47
2023-01-11T11:25:05.263Z,10.52
2023-01-11T11:27:37.496Z,10.09
2023-01-11T11:30:06.260Z,10.82
2023-01-11T11:32:38.446Z,13.27
2023-01-11T11:35:10.798Z,14.31
2023-01-11T11:37:45.636Z,14.12
2023-01-11T11:40:30.593Z,14.00
2023-01-11T11:43:20.848Z,13.64
2023-01-11T11:45:56.926Z,13.24
2023-01-11T11:48:31.377Z,13.13
2023-01-11T11:51:03.560Z,12.82
2023-01-11T11:53:55.700Z,12.34
2023-01-11T11:56:27.602Z,11.76
2023-01-11T11:58:58.166Z,11.71
2023-01-11T12:01:31.694Z,11.76
2023-01-11T12:04:05.141Z,12.00
2023-01-11T12:06:33.132Z,12.38
2023-01-11T12:09:03.243Z,12.80
2023-01-11T12:11:42.304Z,13.02
2023-01-11T12:14:10.258Z,12.91
2023-01-11T12:16:41.454Z,12.79
2023-01-11T12:19:25.734Z,12.66
2023-01-11T12:21:54.232Z,12.03
2023-01-11T12:24:24.042Z,11.37
2023-01-11T12:27:11.066Z,10.91
2023-01-11T12:30:20.955Z,11.22
2023-01-11T12:33:13.432Z,12.47
2023-01-11T12:35:51.785Z,13.50
2023-01-11T12:38:33.222Z,14.16
2023-01-11T12:41:42.429Z,14.67
2023-01-11T12:44:28.736Z,14.70
2023-01-11T12:47:05.722Z,14.52
2023-01-11T12:49:58.094Z,14.17
2023-01-11T12:52:45.227Z,13.68
2023-01-11T12:55:31.170Z,13.18
2023-01-11T12:58:14.168Z,12.73
2023-01-11T13:01:09.350Z,12.31
2023-01-11T13:03:54.387Z,11.98
2023-01-11T13:06:42.188Z,11.62
2023-01-11T13:09:40.066Z,11.15
2023-01-11T13:12:26.347Z,10.77
2023-01-11T13:15:03.382Z,10.43
2023-01-11T13:18:16.441Z,10.31
2023-01-11T13:21:01.188Z,10.25
2023-01-11T13:23:44.977Z,10.12
2023-01-11T13:26:19.828Z,9.89
2023-01-11T13:28:54.952Z,9.71
2023-01-11T13:31:24.373Z,9.67
2023-01-11T13:34:01.228Z,9.76
2023-01-11T13:36:40.947Z,9.85
2023-01-11T13:39:24.111Z,9.89
2023-01-11T13:41:58.178Z,9.75
2023-01-11T13:44:37.094Z,9.65
2023-01-11T13:47:27.563Z,9.56
2023-01-11T13:50:13.496Z,9.49
2023-01-11T13:53:03.692Z,9.33
2023-01-11T13:55:42.029Z,9.07
2023-01-11T13:58:19.257Z,8.75
2023-01-11T14:01:18.229Z,8.49
2023-01-11T14:03:49.394Z,8.30
2023-01-11T14:06:28.397Z,8.62
2023-01-11T14:09:18.329Z,10.80
2023-01-11T14:12:22.015Z,12.69
2023-01-11T14:15:08.368Z,13.06
2023-01-11T14:17:44.958Z,11.71
2023-01-11T14:20:15.576Z,10.70
2023-01-11T14:22:43.439Z,10.00
2023-01-11T14:25:24.920Z,9.42
2023-01-11T14:28:11.763Z,8.82
2023-01-11T14:31:01.645Z,8.27
2023-01-11T14:33:32.690Z,7.79
2023-01-11T14:36:10.272Z,7.42
2023-01-11T14:38:57.959Z,7.56
2023-01-11T14:41:55.122Z,9.75
2023-01-11T14:44:48.210Z,11.44
2023-01-11T14:47:34.949Z,11.70
2023-01-11T14:50:44.943Z,10.28
2023-01-11T14:53:21.687Z,8.97
2023-01-11T14:55:49.884Z,8.19
2023-01-11T14:58:24.027Z,7.65
2023-01-11T15:00:54.585Z,7.19
2023-01-11T15:03:22.407Z,6.78
2023-01-11T15:05:55.236Z,6.84
2023-01-11T15:08:26.359Z,8.80
2023-01-11T15:10:59.177Z,10.41
2023-01-11T15:13:49.606Z,10.91
2023-01-11T15:16:47.982Z,9.55
2023-01-11T15:19:37.170Z,8.17
2023-01-11T15:22:06.350Z,7.29
2023-01-11T15:24:44.152Z,6.69
2023-01-11T15:27:28.119Z,6.68
2023-01-11T15:29:57.693Z,8.67
2023-01-11T15:32:36.303Z,10.11
2023-01-11T15:35:22.713Z,10.59
2023-01-11T15:38:18.492Z,9.18
2023-01-11T15:40:46.791Z,7.79
2023-01-11T15:43:38.017Z,6.98
2023-01-11T15:46:54.027Z,6.93
2023-01-11T15:49:41.090Z,9.52
2023-01-11T15:52:33.963Z,10.82
2023-01-11T15:55:26.812Z,10.93
2023-01-11T15:58:24.028Z,9.16
2023-01-11T16:01:11.185Z,7.75
2023-01-11T16:03:51.908Z,6.86
2023-01-11T16:06:47.481Z,6.78
2023-01-11T16:09:37.934Z,8.99
2023-01-11T16:12:20.857Z,10.49
2023-01-11T16:14:57.770Z,10.69
2023-01-11T16:17:27.028Z,9.20
2023-01-11T16:19:57.008Z,7.89
2023-01-11T16:22:27.677Z,6.93
2023-01-11T16:25:01.340Z,6.74
2023-01-11T16:27:33.241Z,8.59
2023-01-11T16:30:01.914Z,10.12
2023-01-11T16:32:35.408Z,10.51
2023-01-11T16:35:17.483Z,9.25
2023-01-11T16:37:51.916Z,7.85
2023-01-11T16:40:21.643Z,6.92
2023-01-11T16:42:55.599Z,6.29
2023-01-11T16:45:38.876Z,6.30
2023-01-11T16:48:30.213Z,8.32
2023-01-11T16:51:10.304Z,9.97
2023-01-11T16:53:43.705Z,10.64
2023-01-11T16:56:16.747Z,10.56
2023-01-11T16:59:05.390Z,9.22
2023-01-11T17:01:59.898Z,7.81
2023-01-11T17:04:30.941Z,6.80
2023-01-11T17:07:13.760Z,6.63
2023-01-11T17:09:43.797Z,8.39
2023-01-11T17:12:24.952Z,9.73
2023-01-11T17:15:27.103Z,10.46
2023-01-11T17:17:55.164Z,10.29
2023-01-11T17:20:29.843Z,8.89
2023-01-11T17:22:59.244Z,7.63
2023-01-11T17:25:43.887Z,7.17
2023-01-11T17:28:20.181Z,8.76
2023-01-11T17:30:51.430Z,9.97
2023-01-11T17:33:33.634Z,10.24
2023-01-11T17:36:02.882Z,8.92
2023-01-11T17:38:31.589Z,7.70
2023-01-11T17:41:02.584Z,6.85
2023-01-11T17:43:50.155Z,6.66
2023-01-11T17:46:22.253Z,8.67
2023-01-11T17:48:59.118Z,10.16
2023-01-11T17:51:32.743Z,10.22
2023-01-11T17:54:00.827Z,8.75
2023-01-11T17:56:45.683Z,7.58
2023-01-11T17:59:16.458Z,6.66
2023-01-11T18:01:50.680Z,6.53
2023-01-11T18:04:21.022Z,8.12
2023-01-11T18:06:52.378Z,9.64
2023-01-11T18:09:31.705Z,10.13
2023-01-11T18:12:26.040Z,8.77
2023-01-11T18:14:58.407Z,7.30
2023-01-11T18:17:32.497Z,6.48
2023-01-11T18:20:03.097Z,6.43
2023-01-11T18:22:40.831Z,8.29
2023-01-11T18:25:19.437Z,9.84
2023-01-11T18:27:48.067Z,10.18
2023-01-11T18:30:31.346Z,8.81
2023-01-11T18:33:02.276Z,7.47
2023-01-11T18:35:30.916Z,6.62
2023-01-11T18:37:58.919Z,6.45
2023-01-11T18:40:26.894Z,8.15
2023-01-11T18:42:57.448Z,9.72
2023-01-11T18:45:25.395Z,10.23
2023-01-11T18:47:53.396Z,9.02
2023-01-11T18:50:21.336Z,7.73
2023-01-11T18:52:50.208Z,6.80
2023-01-11T18:55:19.887Z,6.05
2023-01-11T18:57:48.087Z,5.96
2023-01-11T19:00:16.913Z,7.71
2023-01-11T19:02:45.211Z,9.39
2023-01-11T19:05:16.800Z,9.99
2023-01-11T19:07:45.502Z,8.70
2023-01-11T19:10:19.330Z,7.39
2023-01-11T19:12:48.590Z,6.40
2023-01-11T19:15:17.114Z,6.07
2023-01-11T19:17:45.161Z,7.63
2023-01-11T19:20:14.313Z,9.12
2023-01-11T19:22:42.448Z,9.59
2023-01-11T19:25:11.127Z,8.35
2023-01-11T19:27:39.245Z,7.05
2023-01-11T19:30:08.101Z,6.07
2023-01-11T19:32:36.091Z,5.79
2023-01-11T19:35:04.351Z,7.45
2023-01-11T19:37:37.663Z,8.98
2023-01-11T19:40:06.354Z,9.33
2023-01-11T19:42:34.775Z,8.00
2023-01-11T19:45:03.502Z,6.69
2023-01-11T19:47:31.431Z,5.71
2023-01-11T19:50:01.105Z,5.45
2023-01-11T19:52:29.748Z,7.19
2023-01-11T19:55:00.592Z,8.78
2023-01-11T19:57:29.826Z,9.29
2023-01-11T19:59:57.802Z,8.00
2023-01-11T20:02:26.441Z,6.62
2023-01-11T20:04:55.587Z,5.64
2023-01-11T20:07:23.530Z,4.96
2023-01-11T20:09:51.478Z,4.91
2023-01-11T20:12:19.463Z,6.74
2023-01-11T20:14:47.369Z,8.41
2023-01-11T20:17:21.177Z,9.11
2023-01-11T20:19:55.383Z,7.89
2023-01-11T20:22:26.709Z,6.57
2023-01-11T20:24:56.338Z,5.67
2023-01-11T20:27:24.676Z,5.41
2023-01-11T20:29:52.714Z,6.84
2023-01-11T20:32:39.620Z,8.28
2023-01-11T20:35:10.143Z,9.39
2023-01-11T20:37:38.643Z,9.52
2023-01-11T20:40:07.748Z,8.22
2023-01-11T20:42:35.993Z,6.91
2023-01-11T20:45:04.602Z,5.93
2023-01-11T20:47:33.022Z,5.67
2023-01-11T20:50:01.060Z,7.07
2023-01-11T20:52:29.010Z,8.39
2023-01-11T20:54:57.272Z,9.17
2023-01-11T20:57:29.350Z,9.31
2023-01-11T20:59:57.706Z,8.05
2023-01-11T21:02:25.881Z,6.89
2023-01-11T21:04:54.004Z,6.53
2023-01-11T21:07:24.332Z,8.08
2023-01-11T21:09:52.342Z,9.41
2023-01-11T21:12:20.509Z,9.79
2023-01-11T21:14:48.442Z,8.47
2023-01-11T21:17:19.418Z,7.10
2023-01-11T21:19:47.879Z,6.63
2023-01-11T21:22:16.025Z,7.68
2023-01-11T21:24:44.537Z,8.56
2023-01-11T21:27:12.514Z,8.55
2023-01-11T21:29:40.477Z,7.45
2023-01-11T21:32:08.348Z,6.45
2023-01-11T21:34:36.500Z,6.19
2023-01-11T21:37:04.556Z,7.79
2023-01-11T21:39:32.652Z,9.35
2023-01-11T21:42:01.316Z,9.82
2023-01-11T21:44:32.449Z,8.67
2023-01-11T21:47:03.169Z,7.49
2023-01-11T21:49:32.328Z,6.70
2023-01-11T21:52:00.511Z,6.59
2023-01-11T21:54:28.537Z,8.40
2023-01-11T21:56:56.831Z,10.02
2023-01-11T21:59:25.321Z,10.45
2023-01-11T22:01:54.061Z,9.24
2023-01-11T22:04:22.153Z,8.07
2023-01-11T22:06:54.758Z,7.26
2023-01-11T22:09:25.797Z,7.07
2023-01-11T22:11:53.813Z,8.78
2023-01-11T22:14:22.918Z,10.28
2023-01-11T22:16:51.359Z,10.42
2023-01-11T22:19:19.323Z,9.06
2023-01-11T22:21:47.465Z,7.86
2023-01-11T22:24:16.037Z,6.99
2023-01-11T22:26:44.287Z,6.85
2023-01-11T22:29:12.572Z,8.58
2023-01-11T22:31:53.338Z,10.05
2023-01-11T22:34:22.463Z,10.52
2023-01-11T22:36:50.619Z,9.18
2023-01-11T22:39:21.769Z,7.95
2023-01-11T22:41:50.222Z,7.09
2023-01-11T22:44:18.631Z,6.96
2023-01-11T22:46:47.383Z,8.71
2023-01-11T22:49:15.991Z,10.23
2023-01-11T22:51:44.367Z,10.82
2023-01-11T22:54:12.840Z,9.72
2023-01-11T22:56:41.380Z,8.50
2023-01-11T22:59:10.514Z,7.65
2023-01-11T23:01:40.508Z,7.48
2023-01-11T23:04:12.389Z,9.17
2023-01-11T23:06:42.472Z,10.67
2023-01-11T23:09:16.679Z,11.15
2023-01-11T23:12:03.548Z,9.92
2023-01-11T23:14:33.271Z,8.62
2023-01-11T23:17:07.060Z,7.75
2023-01-11T23:19:37.187Z,7.54
2023-01-11T23:22:05.402Z,9.25
2023-01-11T23:24:33.679Z,10.62
2023-01-11T23:27:01.679Z,10.97
2023-01-11T23:29:29.775Z,9.76
2023-01-11T23:31:57.821Z,8.50
2023-01-11T23:34:25.832Z,7.59
2023-01-11T23:36:53.966Z,7.36
2023-01-11T23:39:24.223Z,8.86
2023-01-11T23:42:11.332Z,10.34
2023-01-11T23:44:39.512Z,10.81
2023-01-11T23:47:21.987Z,9.55
2023-01-11T23:49:53.164Z,8.24
2023-01-11T23:52:24.712Z,7.41
2023-01-11T23:54:53.157Z,7.26
2023-01-11T23:57:22.352Z,8.87
2023-01-11T23:59:51.473Z,10.14
